createdAt,value
2023-05-04T00:00:35.518Z,4.38
2023-05-04T00:01:35.463Z,4.50
2023-05-04T00:02:35.519Z,4.44
2023-05-04T00:03:35.482Z,4.62
2023-05-04T00:04:35.355Z,4.60
2023-05-04T00:05:35.428Z,4.66
2023-05-04T00:06:35.280Z,4.70
2023-05-04T00:07:35.252Z,4.70
2023-05-04T00:08:35.223Z,4.60
2023-05-04T00:09:35.188Z,4.62
2023-05-04T00:10:35.205Z,4.66
2023-05-04T00:11:35.094Z,4.55
2023-05-04T00:12:35.070Z,4.58
2023-05-04T00:13:35.027Z,4.60
2023-05-04T00:14:35.008Z,4.55
2023-05-04T00:15:34.945Z,4.59
2023-05-04T00:16:34.976Z,4.80
2023-05-04T00:17:34.962Z,4.87
2023-05-04T00:18:34.843Z,4.92
2023-05-04T00:19:34.804Z,4.87
2023-05-04T00:20:34.768Z,4.94
2023-05-04T00:21:34.722Z,5.08
2023-05-04T00:22:34.763Z,5.18
2023-05-04T00:23:34.646Z,5.25
2023-05-04T00:24:34.624Z,5.29
2023-05-04T00:25:34.580Z,5.32
2023-05-04T00:26:34.589Z,5.44
2023-05-04T00:27:35.279Z,5.36
2023-05-04T00:28:34.569Z,5.39
2023-05-04T00:29:34.435Z,5.39
2023-05-04T00:30:34.421Z,5.29
2023-05-04T00:31:34.397Z,5.36
2023-05-04T00:32:39.827Z,5.41
2023-05-04T00:33:34.388Z,5.36
2023-05-04T00:34:34.326Z,5.39
2023-05-04T00:35:34.225Z,5.47
2023-05-04T00:36:34.193Z,5.44
2023-05-04T00:37:34.165Z,5.43
2023-05-04T00:38:34.108Z,5.44
2023-05-04T00:39:34.125Z,5.44
2023-05-04T00:40:34.030Z,5.51
2023-05-04T00:41:34.000Z,5.50
2023-05-04T00:42:33.974Z,5.48
2023-05-04T00:43:33.927Z,5.51
2023-05-04T00:44:33.890Z,5.48
2023-05-04T00:45:33.909Z,5.62
2023-05-04T00:46:33.869Z,5.66
2023-05-04T00:47:34.430Z,5.62
2023-05-04T00:48:33.747Z,5.59
2023-05-04T00:49:33.706Z,5.51
2023-05-04T00:50:33.671Z,5.50
2023-05-04T00:51:33.780Z,5.51
2023-05-04T00:52:33.662Z,5.47
2023-05-04T00:53:33.561Z,5.48
2023-05-04T00:54:33.535Z,5.43
2023-05-04T00:55:33.488Z,5.47
2023-05-04T00:56:33.454Z,5.44
2023-05-04T00:57:33.465Z,5.50
2023-05-04T00:58:33.449Z,5.51
2023-05-04T00:59:33.345Z,5.53
2023-05-04T01:00:33.303Z,5.51
2023-05-04T01:01:33.320Z,5.53
2023-05-04T01:02:33.262Z,5.44
2023-05-04T01:03:33.303Z,5.44
2023-05-04T01:04:33.178Z,5.41
2023-05-04T01:05:33.130Z,5.44
2023-05-04T01:06:33.085Z,5.30
2023-05-04T01:07:33.062Z,5.25
2023-05-04T01:08:33.127Z,5.23
2023-05-04T01:09:32.984Z,5.20
2023-05-04T01:10:32.945Z,5.15
2023-05-04T01:11:32.909Z,5.18
2023-05-04T01:12:32.896Z,5.14
2023-05-04T01:13:32.829Z,5.10
2023-05-04T01:14:32.869Z,5.02
2023-05-04T01:15:32.775Z,5.05
2023-05-04T01:16:32.787Z,4.94
2023-05-04T01:17:32.714Z,4.96
2023-05-04T01:18:32.706Z,4.90
2023-05-04T01:19:32.670Z,4.96
2023-05-04T01:20:32.583Z,4.90
2023-05-04T01:21:32.556Z,4.94
2023-05-04T01:22:32.521Z,4.87
2023-05-04T01:23:32.479Z,4.86
2023-05-04T01:24:32.974Z,4.86
2023-05-04T01:25:32.396Z,4.82
2023-05-04T01:26:32.357Z,4.89
2023-05-04T01:27:32.325Z,4.84
2023-05-04T01:28:32.916Z,4.86
2023-05-04T01:29:32.313Z,4.87
2023-05-04T01:30:32.224Z,4.87
2023-05-04T01:31:32.228Z,4.89
2023-05-04T01:32:32.212Z,4.87
2023-05-04T01:33:32.113Z,4.89
2023-05-04T01:34:32.144Z,4.84
2023-05-04T01:35:32.036Z,4.89
2023-05-04T01:36:32.061Z,4.82
2023-05-04T01:37:34.798Z,4.86
2023-05-04T01:38:31.927Z,4.84
2023-05-04T01:39:32.020Z,4.84
2023-05-04T01:40:31.861Z,4.84
2023-05-04T01:41:31.900Z,4.74
2023-05-04T01:42:31.772Z,4.78
2023-05-04T01:43:31.755Z,4.73
2023-05-04T01:44:31.711Z,4.74
2023-05-04T01:45:31.707Z,4.82
2023-05-04T01:46:31.753Z,4.71
2023-05-04T01:47:31.614Z,4.71
2023-05-04T01:48:31.559Z,4.70
2023-05-04T01:49:31.519Z,4.66
2023-05-04T01:50:31.534Z,4.59
2023-05-04T01:51:31.441Z,4.52
2023-05-04T01:52:31.399Z,4.53
2023-05-04T01:53:31.406Z,4.44
2023-05-04T01:54:31.334Z,4.45
2023-05-04T01:55:31.298Z,4.48
2023-05-04T01:56:31.328Z,4.40
2023-05-04T01:57:31.235Z,4.42
2023-05-04T01:58:31.219Z,4.34
2023-05-04T01:59:31.154Z,4.32
2023-05-04T02:00:31.110Z,4.42
2023-05-04T02:01:31.124Z,4.35
2023-05-04T02:02:31.157Z,4.23
2023-05-04T02:03:31.185Z,4.17
2023-05-04T02:04:30.968Z,4.19
2023-05-04T02:05:30.933Z,4.16
2023-05-04T02:06:30.899Z,4.13
2023-05-04T02:07:30.874Z,4.13
2023-05-04T02:08:30.890Z,4.10
2023-05-04T02:09:30.815Z,4.06
2023-05-04T02:10:30.751Z,4.02
2023-05-04T02:11:30.725Z,3.95
2023-05-04T02:12:30.728Z,3.91
2023-05-04T02:13:30.657Z,4.01
2023-05-04T02:14:30.653Z,4.01
2023-05-04T02:15:30.571Z,3.98
2023-05-04T02:16:30.558Z,3.92
2023-05-04T02:17:30.573Z,3.99
2023-05-04T02:18:30.451Z,3.94
2023-05-04T02:19:30.420Z,3.87
2023-05-04T02:20:30.459Z,3.86
2023-05-04T02:21:30.366Z,3.83
2023-05-04T02:22:30.310Z,3.83
2023-05-04T02:23:30.275Z,3.69
2023-05-04T02:24:30.240Z,3.77
2023-05-04T02:25:30.240Z,3.81
2023-05-04T02:26:30.153Z,3.80
2023-05-04T02:27:30.118Z,3.87
2023-05-04T02:28:30.094Z,3.94
2023-05-04T02:29:30.060Z,3.87
2023-05-04T02:30:30.067Z,3.86
2023-05-04T02:31:30.062Z,3.88
2023-05-04T02:32:29.955Z,3.86
2023-05-04T02:33:29.907Z,3.87
2023-05-04T02:34:29.883Z,3.84
2023-05-04T02:35:29.892Z,3.86
2023-05-04T02:36:29.796Z,3.78
2023-05-04T02:37:29.759Z,3.77
2023-05-04T02:38:29.715Z,3.73
2023-05-04T02:39:29.702Z,3.70
2023-05-04T02:40:29.654Z,3.78
2023-05-04T02:41:29.827Z,3.91
2023-05-04T02:42:29.577Z,3.91
2023-05-04T02:43:29.533Z,3.88
2023-05-04T02:44:29.498Z,3.99
2023-05-04T02:45:29.496Z,3.98
2023-05-04T02:46:29.491Z,4.01
2023-05-04T02:47:29.422Z,4.04
2023-05-04T02:48:29.348Z,4.01
2023-05-04T02:49:29.345Z,4.02
2023-05-04T02:50:29.294Z,4.02
2023-05-04T02:51:29.244Z,4.05
2023-05-04T02:52:29.269Z,4.04
2023-05-04T02:53:29.193Z,4.05
2023-05-04T02:54:29.126Z,4.02
2023-05-04T02:55:29.092Z,4.06
2023-05-04T02:56:29.059Z,4.02
2023-05-04T02:57:29.021Z,3.99
2023-05-04T02:58:29.037Z,4.12
2023-05-04T02:59:29.001Z,3.99
2023-05-04T03:00:28.917Z,3.99
2023-05-04T03:01:28.913Z,3.95
2023-05-04T03:02:28.853Z,3.91
2023-05-04T03:03:32.310Z,3.91
2023-05-04T03:04:28.896Z,3.83
2023-05-04T03:05:28.803Z,3.80
2023-05-04T03:06:28.687Z,3.69
2023-05-04T03:07:28.664Z,3.62
2023-05-04T03:08:28.615Z,3.59
2023-05-04T03:09:28.626Z,3.63
2023-05-04T03:10:28.541Z,3.56
2023-05-04T03:11:28.558Z,3.63
2023-05-04T03:12:28.544Z,3.66
2023-05-04T03:13:28.458Z,3.63
2023-05-04T03:14:28.395Z,3.62
2023-05-04T03:15:28.348Z,3.51
2023-05-04T03:16:28.450Z,3.65
2023-05-04T03:17:28.353Z,3.59
2023-05-04T03:18:42.926Z,3.50
2023-05-04T03:19:28.208Z,3.47
2023-05-04T03:20:28.214Z,3.45
2023-05-04T03:21:28.195Z,3.50
2023-05-04T03:22:28.120Z,3.47
2023-05-04T03:23:28.087Z,3.40
2023-05-04T03:24:28.057Z,3.37
2023-05-04T03:25:27.991Z,3.26
2023-05-04T03:26:28.035Z,3.37
2023-05-04T03:27:27.921Z,3.40
2023-05-04T03:28:27.872Z,3.34
2023-05-04T03:29:27.840Z,3.29
2023-05-04T03:30:27.805Z,3.45
2023-05-04T03:31:27.790Z,3.41
2023-05-04T03:32:27.792Z,3.34
2023-05-04T03:33:27.728Z,3.42
2023-05-04T03:34:27.651Z,3.40
2023-05-04T03:35:27.609Z,3.42
2023-05-04T03:36:27.574Z,3.37
2023-05-04T03:37:27.537Z,3.41
2023-05-04T03:38:27.614Z,3.45
2023-05-04T03:39:27.476Z,3.47
2023-05-04T03:40:27.425Z,3.40
2023-05-04T03:41:27.390Z,3.42
2023-05-04T03:42:27.347Z,3.47
2023-05-04T03:43:27.327Z,3.42
2023-05-04T03:44:27.333Z,3.47
2023-05-04T03:45:27.246Z,3.41
2023-05-04T03:46:27.213Z,3.45
2023-05-04T03:47:27.185Z,3.50
2023-05-04T03:48:27.137Z,3.47
2023-05-04T03:49:27.114Z,3.41
2023-05-04T03:50:27.117Z,3.41
2023-05-04T03:51:27.017Z,3.41
2023-05-04T03:52:26.997Z,3.50
2023-05-04T03:53:26.967Z,3.48
2023-05-04T03:54:26.910Z,3.51
2023-05-04T03:55:26.879Z,3.78
2023-05-04T03:56:26.884Z,4.04
2023-05-04T03:57:26.796Z,4.50
2023-05-04T03:58:26.765Z,4.90
2023-05-04T03:59:26.731Z,5.12
2023-05-04T04:00:26.696Z,5.32
2023-05-04T04:01:26.695Z,5.50
2023-05-04T04:02:26.718Z,5.66
2023-05-04T04:03:26.760Z,5.83
2023-05-04T04:04:26.554Z,6.17
2023-05-04T04:05:26.510Z,6.41
2023-05-04T04:06:26.465Z,6.56
2023-05-04T04:07:26.494Z,6.82
2023-05-04T04:08:26.404Z,6.93
2023-05-04T04:09:26.962Z,7.10
2023-05-04T04:10:26.326Z,7.38
2023-05-04T04:11:26.295Z,7.56
2023-05-04T04:12:26.243Z,7.69
2023-05-04T04:13:26.261Z,8.12
2023-05-04T04:14:26.184Z,8.49
2023-05-04T04:15:26.137Z,8.73
2023-05-04T04:16:26.155Z,8.64
2023-05-04T04:17:26.086Z,8.30
2023-05-04T04:18:26.032Z,8.19
2023-05-04T04:19:26.087Z,7.93
2023-05-04T04:20:25.983Z,7.77
2023-05-04T04:21:25.929Z,7.63
2023-05-04T04:22:25.894Z,7.50
2023-05-04T04:23:25.854Z,7.43
2023-05-04T04:24:25.884Z,7.45
2023-05-04T04:25:25.851Z,7.47
2023-05-04T04:26:25.753Z,7.31
2023-05-04T04:27:25.740Z,7.42
2023-05-04T04:28:25.688Z,7.42
2023-05-04T04:29:25.644Z,7.51
2023-05-04T04:30:25.625Z,7.57
2023-05-04T04:31:25.712Z,7.50
2023-05-04T04:32:25.599Z,7.50
2023-05-04T04:33:25.511Z,7.54
2023-05-04T04:34:25.467Z,7.50
2023-05-04T04:35:25.460Z,7.56
2023-05-04T04:36:25.408Z,7.69
2023-05-04T04:37:25.434Z,7.95
2023-05-04T04:38:25.337Z,8.34
2023-05-04T04:39:25.318Z,8.64
2023-05-04T04:40:25.275Z,8.94
2023-05-04T04:41:25.234Z,9.28
2023-05-04T04:42:25.195Z,9.41
2023-05-04T04:43:25.224Z,9.39
2023-05-04T04:44:25.119Z,9.29
2023-05-04T04:45:25.089Z,9.08
2023-05-04T04:46:25.072Z,9.11
2023-05-04T04:47:25.057Z,9.19
2023-05-04T04:48:24.995Z,9.25
2023-05-04T04:49:25.012Z,9.18
2023-05-04T04:50:24.920Z,9.18
2023-05-04T04:51:24.961Z,9.39
2023-05-04T04:52:24.855Z,9.58
2023-05-04T04:53:24.831Z,9.99
2023-05-04T04:54:24.789Z,10.49
2023-05-04T04:55:24.807Z,10.86
2023-05-04T04:56:24.722Z,10.84
2023-05-04T04:57:24.690Z,10.76
2023-05-04T04:58:24.662Z,10.59
2023-05-04T04:59:24.618Z,10.54
2023-05-04T05:00:24.573Z,10.51
2023-05-04T05:01:24.678Z,10.17
2023-05-04T05:02:24.641Z,10.20
2023-05-04T05:03:24.479Z,10.51
2023-05-04T05:04:24.613Z,10.53
2023-05-04T05:05:24.414Z,10.17
2023-05-04T05:06:24.377Z,9.74
2023-05-04T05:07:24.343Z,9.43
2023-05-04T05:08:24.949Z,9.16
2023-05-04T05:09:24.339Z,8.94
2023-05-04T05:10:24.243Z,8.71
2023-05-04T05:11:24.211Z,8.51
2023-05-04T05:12:24.165Z,8.44
2023-05-04T05:13:24.153Z,8.41
2023-05-04T05:14:24.163Z,8.36
2023-05-04T05:15:24.078Z,8.37
2023-05-04T05:16:24.071Z,8.44
2023-05-04T05:17:24.045Z,8.51
2023-05-04T05:18:23.978Z,8.42
2023-05-04T05:19:23.985Z,8.42
2023-05-04T05:20:23.899Z,8.24
2023-05-04T05:21:23.870Z,8.33
2023-05-04T05:22:23.835Z,8.34
2023-05-04T05:23:23.801Z,8.33
2023-05-04T05:24:23.886Z,8.36
2023-05-04T05:25:23.741Z,8.33
2023-05-04T05:26:23.704Z,8.31
2023-05-04T05:27:23.670Z,8.30
2023-05-04T05:28:23.633Z,8.38
2023-05-04T05:29:23.650Z,8.44
2023-05-04T05:30:23.572Z,8.42
2023-05-04T05:31:23.555Z,8.38
2023-05-04T05:32:23.499Z,8.44
2023-05-04T05:33:24.339Z,8.46
2023-05-04T05:34:23.422Z,8.48
2023-05-04T05:35:24.339Z,8.55
2023-05-04T05:36:23.359Z,8.56
2023-05-04T05:37:23.333Z,8.63
2023-05-04T05:38:23.295Z,8.53
2023-05-04T05:39:23.262Z,8.63
2023-05-04T05:40:23.223Z,8.66
2023-05-04T05:41:23.278Z,8.70
2023-05-04T05:42:23.203Z,8.70
2023-05-04T05:43:23.144Z,8.70
2023-05-04T05:44:23.103Z,8.82
2023-05-04T05:45:23.054Z,8.81
2023-05-04T05:46:23.129Z,8.91
2023-05-04T05:47:23.027Z,8.94
2023-05-04T05:48:22.951Z,8.97
2023-05-04T05:49:22.925Z,9.08
2023-05-04T05:50:22.882Z,8.99
2023-05-04T05:51:22.842Z,9.02
2023-05-04T05:52:22.956Z,9.00
2023-05-04T05:53:22.788Z,9.00
2023-05-04T05:54:22.754Z,9.00
2023-05-04T05:55:22.724Z,9.11
2023-05-04T05:56:22.691Z,8.94
2023-05-04T05:57:22.647Z,9.10
2023-05-04T05:58:22.672Z,9.11
2023-05-04T05:59:22.570Z,9.13
2023-05-04T06:00:22.547Z,9.16
2023-05-04T06:01:22.643Z,9.19
2023-05-04T06:02:22.622Z,9.22
2023-05-04T06:03:22.765Z,9.23
2023-05-04T06:04:22.526Z,9.23
2023-05-04T06:05:22.439Z,9.29
2023-05-04T06:06:22.343Z,9.37
2023-05-04T06:07:22.307Z,9.43
2023-05-04T06:08:22.270Z,9.46
2023-05-04T06:09:22.232Z,9.43
2023-05-04T06:10:22.261Z,9.59
2023-05-04T06:11:22.167Z,9.51
2023-05-04T06:12:22.182Z,9.64
2023-05-04T06:13:22.098Z,9.61
2023-05-04T06:14:22.076Z,9.64
2023-05-04T06:15:22.027Z,9.77
2023-05-04T06:16:22.098Z,9.74
2023-05-04T06:17:21.959Z,9.62
2023-05-04T06:18:21.923Z,9.76
2023-05-04T06:19:21.894Z,9.76
2023-05-04T06:20:21.854Z,9.83
2023-05-04T06:21:21.865Z,9.94
2023-05-04T06:22:21.790Z,9.97
2023-05-04T06:23:21.760Z,10.01
2023-05-04T06:24:21.727Z,9.92
2023-05-04T06:25:21.692Z,9.92
2023-05-04T06:26:21.653Z,9.99
2023-05-04T06:27:22.922Z,10.04
2023-05-04T06:28:21.589Z,10.02
2023-05-04T06:29:21.556Z,10.19
2023-05-04T06:30:21.513Z,10.20
2023-05-04T06:31:21.514Z,10.19
2023-05-04T06:32:21.514Z,10.33
2023-05-04T06:33:21.420Z,10.41
2023-05-04T06:34:21.385Z,10.59
2023-05-04T06:35:21.357Z,10.54
2023-05-04T06:36:21.315Z,10.49
2023-05-04T06:37:21.285Z,10.51
2023-05-04T06:38:21.298Z,10.54
2023-05-04T06:39:21.243Z,10.54
2023-05-04T06:40:21.183Z,10.64
2023-05-04T06:41:21.153Z,10.69
2023-05-04T06:42:25.893Z,10.82
2023-05-04T06:43:21.147Z,10.79
2023-05-04T06:44:21.042Z,10.87
2023-05-04T06:45:21.028Z,10.89
2023-05-04T06:46:21.319Z,10.79
2023-05-04T06:47:20.956Z,10.93
2023-05-04T06:48:20.930Z,10.99
2023-05-04T06:49:20.987Z,10.94
2023-05-04T06:50:20.852Z,10.92
2023-05-04T06:51:20.826Z,10.96
2023-05-04T06:52:20.780Z,10.97
2023-05-04T06:53:20.754Z,11.05
2023-05-04T06:54:20.774Z,11.04
2023-05-04T06:55:20.679Z,11.14
2023-05-04T06:56:20.640Z,11.19
2023-05-04T06:57:20.618Z,11.29
2023-05-04T06:58:20.581Z,11.27
2023-05-04T06:59:20.617Z,11.33
2023-05-04T07:00:20.577Z,11.36
2023-05-04T07:01:20.529Z,11.41
2023-05-04T07:02:20.450Z,11.43
2023-05-04T07:03:20.503Z,11.50
2023-05-04T07:04:20.415Z,11.55
2023-05-04T07:05:20.350Z,11.65
2023-05-04T07:06:20.359Z,11.81
2023-05-04T07:07:20.293Z,11.83
2023-05-04T07:08:20.243Z,11.87
2023-05-04T07:09:20.259Z,11.95
2023-05-04T07:10:20.173Z,12.04
2023-05-04T07:11:20.138Z,12.00
2023-05-04T07:12:20.185Z,12.13
2023-05-04T07:13:20.131Z,12.17
2023-05-04T07:14:20.064Z,12.03
2023-05-04T07:15:20.035Z,12.17
2023-05-04T07:16:20.021Z,12.25
2023-05-04T07:17:19.947Z,12.28
2023-05-04T07:18:19.988Z,12.28
2023-05-04T07:19:19.885Z,12.37
2023-05-04T07:20:19.851Z,12.46
2023-05-04T07:21:27.551Z,12.54
2023-05-04T07:22:19.790Z,12.60
2023-05-04T07:23:19.750Z,12.55
2023-05-04T07:24:19.771Z,12.68
2023-05-04T07:25:19.686Z,12.57
2023-05-04T07:26:19.650Z,12.75
2023-05-04T07:27:19.633Z,12.68
2023-05-04T07:28:19.588Z,12.79
2023-05-04T07:29:19.553Z,12.76
2023-05-04T07:30:19.582Z,12.93
2023-05-04T07:31:19.576Z,12.94
2023-05-04T07:32:19.536Z,13.01
2023-05-04T07:33:19.493Z,13.05
2023-05-04T07:34:20.147Z,13.20
2023-05-04T07:35:19.367Z,13.27
2023-05-04T07:36:19.352Z,13.12
2023-05-04T07:37:19.361Z,13.25
2023-05-04T07:38:19.306Z,13.19
2023-05-04T07:39:19.234Z,13.25
2023-05-04T07:40:19.192Z,13.35
2023-05-04T07:41:19.187Z,13.44
2023-05-04T07:42:19.197Z,13.62
2023-05-04T07:43:19.133Z,13.54
2023-05-04T07:44:19.071Z,13.59
2023-05-04T07:45:19.033Z,13.60
2023-05-04T07:46:19.020Z,13.63
2023-05-04T07:47:19.008Z,13.68
2023-05-04T07:48:19.042Z,13.75
2023-05-04T07:49:18.912Z,13.75
2023-05-04T07:50:18.879Z,13.93
2023-05-04T07:51:18.851Z,14.00
2023-05-04T07:52:18.820Z,13.90
2023-05-04T07:53:18.788Z,14.05
2023-05-04T07:54:19.914Z,13.99
2023-05-04T07:55:18.726Z,14.08
2023-05-04T07:56:18.713Z,14.12
2023-05-04T07:57:18.661Z,14.18
2023-05-04T07:58:18.632Z,14.25
2023-05-04T07:59:18.603Z,14.23
2023-05-04T08:00:18.625Z,14.33
2023-05-04T08:01:18.529Z,14.28
2023-05-04T08:02:18.560Z,14.37
2023-05-04T08:03:18.528Z,14.45
2023-05-04T08:04:18.438Z,14.43
2023-05-04T08:05:18.408Z,14.51
2023-05-04T08:06:18.424Z,14.63
2023-05-04T08:07:18.340Z,14.77
2023-05-04T08:08:18.306Z,14.79
2023-05-04T08:09:18.293Z,14.79
2023-05-04T08:10:18.260Z,15.04
2023-05-04T08:11:20.948Z,14.92
2023-05-04T08:12:18.233Z,14.99
2023-05-04T08:13:18.180Z,15.07
2023-05-04T08:14:18.125Z,15.00
2023-05-04T08:15:18.090Z,15.10
2023-05-04T08:16:18.991Z,15.09
2023-05-04T08:17:18.024Z,15.10
2023-05-04T08:18:18.049Z,15.09
2023-05-04T08:19:17.965Z,15.11
2023-05-04T08:20:17.934Z,15.14
2023-05-04T08:21:17.903Z,15.21
2023-05-04T08:22:17.872Z,15.22
2023-05-04T08:23:17.862Z,15.37
2023-05-04T08:24:18.335Z,15.36
2023-05-04T08:25:18.079Z,15.42
2023-05-04T08:26:18.126Z,15.43
2023-05-04T08:27:17.720Z,15.44
2023-05-04T08:28:17.691Z,15.46
2023-05-04T08:29:17.661Z,15.59
2023-05-04T08:30:17.684Z,15.57
2023-05-04T08:31:17.619Z,15.67
2023-05-04T08:32:17.566Z,15.70
2023-05-04T08:33:17.583Z,15.70
2023-05-04T08:34:17.530Z,15.68
2023-05-04T08:35:17.530Z,15.77
2023-05-04T08:36:17.503Z,15.83
2023-05-04T08:37:17.422Z,15.83
2023-05-04T08:38:17.397Z,15.97
2023-05-04T08:39:17.356Z,15.95
2023-05-04T08:40:17.325Z,16.08
2023-05-04T08:41:17.288Z,16.10
2023-05-04T08:42:17.303Z,16.24
2023-05-04T08:43:17.254Z,16.28
2023-05-04T08:44:17.217Z,16.32
2023-05-04T08:45:17.220Z,16.29
2023-05-04T08:46:17.254Z,16.38
2023-05-04T08:47:17.133Z,16.43
2023-05-04T08:48:17.134Z,16.46
2023-05-04T08:49:17.059Z,16.47
2023-05-04T08:50:17.024Z,16.54
2023-05-04T08:51:16.988Z,16.68
2023-05-04T08:52:16.962Z,16.74
2023-05-04T08:53:16.936Z,16.68
2023-05-04T08:54:16.958Z,16.74
2023-05-04T08:55:16.870Z,16.83
2023-05-04T08:56:16.845Z,16.87
2023-05-04T08:57:16.804Z,16.83
2023-05-04T08:58:16.794Z,16.86
2023-05-04T08:59:16.888Z,16.86
2023-05-04T09:00:16.782Z,16.90
2023-05-04T09:01:16.825Z,16.91
2023-05-04T09:02:16.661Z,16.91
2023-05-04T09:03:16.712Z,16.97
2023-05-04T09:04:16.616Z,17.02
2023-05-04T09:05:16.622Z,17.12
2023-05-04T09:06:16.544Z,17.12
2023-05-04T09:07:16.953Z,17.19
2023-05-04T09:08:16.486Z,17.22
2023-05-04T09:09:16.454Z,17.14
2023-05-04T09:10:16.489Z,17.26
2023-05-04T09:11:16.395Z,17.27
2023-05-04T09:12:16.358Z,17.34
2023-05-04T09:13:16.372Z,17.30
2023-05-04T09:14:16.295Z,17.38
2023-05-04T09:15:16.276Z,17.30
2023-05-04T09:16:16.431Z,17.33
2023-05-04T09:17:16.220Z,17.31
2023-05-04T09:18:16.253Z,17.41
2023-05-04T09:19:16.158Z,17.51
2023-05-04T09:20:16.128Z,17.60
2023-05-04T09:21:16.097Z,17.70
2023-05-04T09:22:16.904Z,17.78
2023-05-04T09:23:16.077Z,17.65
2023-05-04T09:24:16.024Z,17.60
2023-05-04T09:25:15.984Z,17.64
2023-05-04T09:26:16.007Z,17.56
2023-05-04T09:27:15.932Z,17.65
2023-05-04T09:28:15.901Z,17.60
2023-05-04T09:29:15.882Z,17.51
2023-05-04T09:30:16.192Z,17.27
2023-05-04T09:31:15.876Z,17.22
2023-05-04T09:32:15.787Z,17.31
2023-05-04T09:33:15.821Z,17.31
2023-05-04T09:34:15.720Z,17.49
2023-05-04T09:35:29.338Z,17.41
2023-05-04T09:36:15.726Z,17.52
2023-05-04T09:37:15.635Z,17.57
2023-05-04T09:38:15.598Z,17.54
2023-05-04T09:39:15.608Z,17.65
2023-05-04T09:40:15.561Z,17.65
2023-05-04T09:41:15.594Z,17.86
2023-05-04T09:42:15.516Z,17.90
2023-05-04T09:43:15.487Z,18.01
2023-05-04T09:44:15.464Z,18.19
2023-05-04T09:45:15.479Z,18.23
2023-05-04T09:46:15.916Z,18.28
2023-05-04T09:47:15.417Z,18.38
2023-05-04T09:48:15.355Z,18.35
2023-05-04T09:49:15.305Z,18.44
2023-05-04T09:50:16.853Z,18.50
2023-05-04T09:51:15.270Z,18.63
2023-05-04T09:52:15.261Z,18.65
2023-05-04T09:53:15.193Z,18.58
2023-05-04T09:54:15.146Z,18.62
2023-05-04T09:55:15.146Z,18.71
2023-05-04T09:56:15.912Z,18.70
2023-05-04T09:57:15.128Z,18.71
2023-05-04T09:58:15.090Z,18.65
2023-05-04T09:59:15.039Z,18.80
2023-05-04T10:00:15.031Z,18.73
2023-05-04T10:01:14.996Z,18.81
2023-05-04T10:02:22.671Z,18.86
2023-05-04T10:03:14.908Z,19.04
2023-05-04T10:04:14.877Z,18.93
2023-05-04T10:05:14.912Z,18.88
2023-05-04T10:06:14.826Z,18.77
2023-05-04T10:07:14.802Z,18.84
2023-05-04T10:08:17.910Z,18.75
2023-05-04T10:09:14.734Z,18.78
2023-05-04T10:10:14.695Z,19.00
2023-05-04T10:11:14.688Z,19.19
2023-05-04T10:12:14.686Z,19.24
2023-05-04T10:13:14.698Z,19.19
2023-05-04T10:14:14.647Z,19.16
2023-05-04T10:15:14.578Z,19.21
2023-05-04T10:16:14.590Z,19.30
2023-05-04T10:17:14.495Z,19.36
2023-05-04T10:18:14.477Z,19.41
2023-05-04T10:19:14.509Z,19.44
2023-05-04T10:20:14.414Z,19.55
2023-05-04T10:21:14.390Z,19.76
2023-05-04T10:22:14.367Z,19.88
2023-05-04T10:23:14.341Z,19.76
2023-05-04T10:24:14.306Z,19.92
2023-05-04T10:25:14.325Z,19.88
2023-05-04T10:26:14.257Z,19.71
2023-05-04T10:27:14.381Z,19.74
2023-05-04T10:28:14.242Z,19.66
2023-05-04T10:29:14.178Z,19.71
2023-05-04T10:30:14.133Z,19.84
2023-05-04T10:31:20.947Z,19.91
2023-05-04T10:32:14.085Z,19.88
2023-05-04T10:33:14.079Z,19.74
2023-05-04T10:34:14.114Z,19.70
2023-05-04T10:35:14.010Z,19.76
2023-05-04T10:36:14.008Z,19.77
2023-05-04T10:37:14.123Z,19.77
2023-05-04T10:38:13.932Z,19.64
2023-05-04T10:39:13.901Z,19.51
2023-05-04T10:40:13.882Z,19.39
2023-05-04T10:41:13.847Z,19.26
2023-05-04T10:42:13.818Z,19.12
2023-05-04T10:43:14.415Z,18.92
2023-05-04T10:44:13.786Z,18.70
2023-05-04T10:45:13.775Z,18.80
2023-05-04T10:46:13.793Z,18.75
2023-05-04T10:47:13.698Z,18.99
2023-05-04T10:48:13.816Z,19.12
2023-05-04T10:49:13.698Z,19.19
2023-05-04T10:50:13.605Z,19.31
2023-05-04T10:51:13.594Z,19.36
2023-05-04T10:52:13.570Z,19.47
2023-05-04T10:53:13.527Z,19.40
2023-05-04T10:54:13.488Z,19.48
2023-05-04T10:55:13.529Z,19.49
2023-05-04T10:56:13.480Z,19.58
2023-05-04T10:57:13.419Z,19.66
2023-05-04T10:58:13.387Z,19.73
2023-05-04T10:59:13.376Z,19.82
2023-05-04T11:00:13.329Z,19.91
2023-05-04T11:01:13.382Z,20.02
2023-05-04T11:02:13.376Z,19.96
2023-05-04T11:03:13.329Z,19.91
2023-05-04T11:04:13.219Z,19.79
2023-05-04T11:05:13.189Z,19.73
2023-05-04T11:06:13.191Z,19.67
2023-05-04T11:07:13.191Z,19.59
2023-05-04T11:08:13.123Z,19.63
2023-05-04T11:09:13.189Z,19.79
2023-05-04T11:10:13.145Z,19.89
2023-05-04T11:11:13.031Z,20.00
2023-05-04T11:12:13.102Z,19.86
2023-05-04T11:13:12.991Z,19.79
2023-05-04T11:14:12.949Z,19.67
2023-05-04T11:15:12.963Z,19.40
2023-05-04T11:16:12.956Z,19.31
2023-05-04T11:17:27.588Z,19.34
2023-05-04T11:18:13.124Z,19.31
2023-05-04T11:19:12.867Z,19.40
2023-05-04T11:20:12.883Z,19.44
2023-05-04T11:21:12.789Z,19.59
2023-05-04T11:22:12.735Z,19.66
2023-05-04T11:23:12.713Z,19.70
2023-05-04T11:24:12.731Z,19.85
2023-05-04T11:25:12.653Z,20.02
2023-05-04T11:26:12.634Z,20.18
2023-05-04T11:27:12.605Z,20.22
2023-05-04T11:28:14.669Z,20.14
2023-05-04T11:29:12.547Z,20.10
2023-05-04T11:30:12.668Z,20.16
2023-05-04T11:31:12.540Z,20.28
2023-05-04T11:32:12.462Z,20.40
2023-05-04T11:33:12.517Z,20.47
2023-05-04T11:34:12.410Z,20.52
2023-05-04T11:35:12.397Z,20.58
2023-05-04T11:36:12.432Z,20.59
2023-05-04T11:37:12.339Z,20.62
2023-05-04T11:38:12.315Z,20.72
2023-05-04T11:39:12.266Z,20.70
2023-05-04T11:40:12.279Z,20.48
2023-05-04T11:41:12.259Z,20.48
2023-05-04T11:42:12.264Z,20.48
2023-05-04T11:43:12.178Z,20.56
2023-05-04T11:44:12.196Z,20.72
2023-05-04T11:45:12.136Z,20.87
2023-05-04T11:46:12.137Z,20.99
2023-05-04T11:47:12.108Z,21.22
2023-05-04T11:48:12.160Z,21.45
2023-05-04T11:49:12.020Z,21.57
2023-05-04T11:50:12.016Z,21.60
2023-05-04T11:51:11.976Z,21.70
2023-05-04T11:52:11.936Z,21.73
2023-05-04T11:53:11.907Z,21.72
2023-05-04T11:54:11.960Z,21.69
2023-05-04T11:55:11.878Z,21.58
2023-05-04T11:56:11.849Z,21.58
2023-05-04T11:57:11.822Z,21.60
2023-05-04T11:58:11.834Z,21.60
2023-05-04T11:59:11.768Z,21.70
2023-05-04T12:00:11.796Z,21.58
2023-05-04T12:01:11.713Z,21.64
2023-05-04T12:02:11.719Z,21.57
2023-05-04T12:03:11.696Z,21.46
2023-05-04T12:04:11.771Z,21.55
2023-05-04T12:05:11.618Z,21.51
2023-05-04T12:06:11.644Z,21.73
2023-05-04T12:07:11.570Z,21.88
2023-05-04T12:08:11.587Z,22.04
2023-05-04T12:09:11.504Z,22.10
2023-05-04T12:10:11.475Z,22.18
2023-05-04T12:11:11.460Z,22.23
2023-05-04T12:12:11.495Z,22.33
2023-05-04T12:13:11.485Z,22.17
2023-05-04T12:14:11.380Z,22.10
2023-05-04T12:15:11.399Z,22.10
2023-05-04T12:16:11.364Z,21.96
2023-05-04T12:17:11.306Z,21.91
2023-05-04T12:18:11.370Z,21.76
2023-05-04T12:19:11.574Z,21.62
2023-05-04T12:20:11.332Z,21.72
2023-05-04T12:21:11.220Z,21.82
2023-05-04T12:22:11.171Z,21.92
2023-05-04T12:23:11.188Z,21.98
2023-05-04T12:24:11.202Z,22.00
2023-05-04T12:25:11.447Z,21.75
2023-05-04T12:26:11.081Z,21.76
2023-05-04T12:27:11.071Z,21.76
2023-05-04T12:28:11.036Z,21.80
2023-05-04T12:29:11.008Z,21.89
2023-05-04T12:30:11.159Z,22.06
2023-05-04T12:31:11.078Z,22.11
2023-05-04T12:32:10.977Z,22.15
2023-05-04T12:33:10.972Z,22.18
2023-05-04T12:34:10.896Z,22.04
2023-05-04T12:35:10.920Z,21.99
2023-05-04T12:36:10.828Z,21.93
2023-05-04T12:37:10.815Z,21.82
2023-05-04T12:38:10.780Z,21.55
2023-05-04T12:39:10.772Z,21.40
2023-05-04T12:40:27.271Z,21.20
2023-05-04T12:41:10.781Z,21.15
2023-05-04T12:42:10.676Z,21.17
2023-05-04T12:43:10.653Z,21.40
2023-05-04T12:44:10.629Z,21.55
2023-05-04T12:45:10.614Z,21.60
2023-05-04T12:46:10.667Z,21.54
2023-05-04T12:47:10.618Z,21.57
2023-05-04T12:48:10.537Z,21.57
2023-05-04T12:49:10.500Z,21.54
2023-05-04T12:50:10.490Z,21.66
2023-05-04T12:51:17.108Z,21.75
2023-05-04T12:52:10.546Z,21.88
2023-05-04T12:53:10.392Z,21.92
2023-05-04T12:54:10.481Z,21.75
2023-05-04T12:55:10.359Z,21.75
2023-05-04T12:56:10.319Z,21.72
2023-05-04T12:57:10.289Z,21.76
2023-05-04T12:58:10.316Z,21.93
2023-05-04T12:59:10.245Z,22.06
2023-05-04T13:00:10.332Z,22.15
2023-05-04T13:01:10.284Z,22.15
2023-05-04T13:02:10.175Z,22.23
2023-05-04T13:03:10.222Z,22.41
2023-05-04T13:04:10.136Z,22.44